Time,TemperatureF,DewpointF,PressureIn,WindDirection,WindDirectionDegrees,WindSpeedMPH,WindSpeedGustMPH,Humidity,HourlyPrecipIn,Conditions,Clouds,dailyrainin,SoftwareType,DateUTC
2013-07-23 00:04:00,76.5,68.0,29.87,North,0,0.0,0.0,75,0.00,,,0.00,WUHU216HW,2013-07-23 07:04:00,
2013-07-23 00:09:00,76.3,67.8,29.87,North,0,0.0,0.0,75,0.00,,,0.00,WUHU216HW,2013-07-23 07:09:00,
2013-07-23 00:14:00,76.1,67.7,29.87,East,89,0.4,0.4,75,0.00,,,0.00,WUHU216HW,2013-07-23 07:14:00,
2013-07-23 00:19:00,76.1,67.7,29.87,North,0,0.0,0.0,75,0.00,,,0.00,WUHU216HW,2013-07-23 07:19:00,
2013-07-23 00:24:00,76.1,67.7,29.87,North,0,0.0,0.0,75,0.00,,,0.00,WUHU216HW,2013-07-23 07:24:00,
2013-07-23 00:29:00,76.0,67.5,29.87,North,0,0.0,0.0,75,0.00,,,0.00,WUHU216HW,2013-07-23 07:29:00,
2013-07-23 00:34:00,76.0,67.5,29.87,North,0,0.0,0.0,75,0.00,,,0.00,WUHU216HW,2013-07-23 07:34:00,
2013-07-23 00:39:00,75.8,67.3,29.87,North,0,0.0,0.0,75,0.00,,,0.00,WUHU216HW,2013-07-23 07:39:00,
2013-07-23 00:44:00,75.4,67.3,29.88,North,0,0.0,0.0,76,0.00,,,0.00,WUHU216HW,2013-07-23 07:44:00,
2013-07-23 00:50:00,75.4,67.3,29.88,North,0,0.0,0.0,76,0.00,,,0.00,WUHU216HW,2013-07-23 07:50:00,
2013-07-23 00:55:00,75.4,67.3,29.88,East,90,0.6,0.9,76,0.00,,,0.00,WUHU216HW,2013-07-23 07:55:00,
2013-07-23 01:00:00,75.1,67.0,29.89,North,0,0.0,0.0,76,0.00,,,0.00,WUHU216HW,2013-07-23 08:00:00,
2013-07-23 01:05:00,75.1,67.4,29.89,North,0,0.0,0.0,77,0.00,,,0.00,WUHU216HW,2013-07-23 08:05:00,
2013-07-23 01:10:00,75.1,67.4,29.89,SW,225,0.3,0.4,77,0.00,,,0.00,WUHU216HW,2013-07-23 08:10:00,
2013-07-23 01:15:00,75.2,67.6,29.89,North,0,0.0,0.0,77,0.00,,,0.00,WUHU216HW,2013-07-23 08:15:00,
2013-07-23 01:20:00,75.2,67.6,29.88,North,0,0.0,0.0,77,0.00,,,0.00,WUHU216HW,2013-07-23 08:20:00,
2013-07-23 01:25:00,75.4,67.8,29.88,North,0,0.0,0.0,77,0.00,,,0.00,WUHU216HW,2013-07-23 08:25:00,
2013-07-23 01:30:00,75.4,67.3,29.89,North,0,0.0,0.0,76,0.00,,,0.00,WUHU216HW,2013-07-23 08:30:00,
2013-07-23 01:35:00,75.4,67.3,29.89,North,0,0.0,0.0,76,0.00,,,0.00,WUHU216HW,2013-07-23 08:35:00,
2013-07-23 01:40:00,75.2,67.6,29.89,North,0,0.0,0.0,77,0.00,,,0.00,WUHU216HW,2013-07-23 08:40:00,
2013-07-23 01:45:00,75.2,67.6,29.89,North,0,0.0,0.0,77,0.00,,,0.00,WUHU216HW,2013-07-23 08:45:00,
2013-07-23 01:50:00,75.2,67.6,29.90,North,0,0.0,0.0,77,0.00,,,0.00,WUHU216HW,2013-07-23 08:50:00,
2013-07-23 01:55:00,75.2,67.6,29.90,North,0,0.0,0.0,77,0.00,,,0.00,WUHU216HW,2013-07-23 08:55:00,
2013-07-23 02:00:00,75.2,67.6,29.90,North,0,0.0,0.0,77,0.00,,,0.00,WUHU216HW,2013-07-23 09:00:00,
2013-07-23 02:05:00,75.2,67.6,29.90,SW,225,0.5,0.7,77,0.00,,,0.00,WUHU216HW,2013-07-23 09:05:00,
2013-07-23 02:10:00,75.2,68.0,29.90,WSW,239,0.3,0.4,78,0.00,,,0.00,WUHU216HW,2013-07-23 09:10:00,
2013-07-23 02:15:00,75.2,68.0,29.90,South,184,0.4,1.1,78,0.00,,,0.00,WUHU216HW,2013-07-23 09:15:00,
2013-07-23 02:20:00,75.2,68.0,29.90,SSW,210,0.9,1.3,78,0.00,,,0.00,WUHU216HW,2013-07-23 09:20:00,
2013-07-23 02:25:00,75.2,67.6,29.90,North,0,0.0,0.0,77,0.00,,,0.00,WUHU216HW,2013-07-23 09:25:00,
2013-07-23 02:30:00,75.2,67.6,29.90,North,0,0.0,0.0,77,0.00,,,0.00,WUHU216HW,2013-07-23 09:30:00,
2013-07-23 02:35:00,75.2,67.6,29.90,North,0,0.0,0.0,77,0.00,,,0.00,WUHU216HW,2013-07-23 09:35:00,
2013-07-23 02:40:00,75.2,68.0,29.90,North,0,0.0,0.0,78,0.00,,,0.00,WUHU216HW,2013-07-23 09:40:00,
2013-07-23 02:45:00,75.2,68.0,29.90,North,0,0.0,0.0,78,0.00,,,0.00,WUHU216HW,2013-07-23 09:45:00,
2013-07-23 02:50:00,75.2,68.0,29.90,North,0,0.0,0.0,78,0.00,,,0.00,WUHU216HW,2013-07-23 09:50:00,
2013-07-23 02:55:00,75.1,67.8,29.90,North,0,0.0,0.0,78,0.00,,,0.00,WUHU216HW,2013-07-23 09:55:00,
2013-07-23 03:00:00,74.9,67.6,29.90,North,0,0.0,0.0,78,0.00,,,0.00,WUHU216HW,2013-07-23 10:00:00,
2013-07-23 03:05:00,74.9,67.6,29.90,East,90,0.4,0.4,78,0.00,,,0.00,WUHU216HW,2013-07-23 10:05:00,
2013-07-23 03:10:00,74.9,67.6,29.90,ESE,108,0.3,0.4,78,0.00,,,0.00,WUHU216HW,2013-07-23 10:10:00,
2013-07-23 03:15:00,74.9,67.6,29.90,ESE,119,0.3,0.4,78,0.00,,,0.00,WUHU216HW,2013-07-23 10:15:00,
2013-07-23 03:20:00,74.9,67.2,29.90,ESE,113,0.2,0.4,77,0.00,,,0.00,WUHU216HW,2013-07-23 10:20:00,
2013-07-23 03:25:00,74.9,67.2,29.90,SE,135,0.3,0.4,77,0.00,,,0.00,WUHU216HW,2013-07-23 10:25:00,
2013-07-23 03:30:00,75.1,67.0,29.90,North,0,0.0,0.0,76,0.00,,,0.00,WUHU216HW,2013-07-23 10:30:00,
2013-07-23 03:35:00,75.1,67.0,29.90,SE,135,0.2,0.2,76,0.00,,,0.00,WUHU216HW,2013-07-23 10:35:00,
2013-07-23 03:40:00,75.1,66.6,29.90,SE,145,0.3,0.4,75,0.00,,,0.00,WUHU216HW,2013-07-23 10:40:00,
2013-07-23 03:45:00,75.2,66.8,29.90,North,0,0.0,0.0,75,0.00,,,0.00,WUHU216HW,2013-07-23 10:45:00,
2013-07-23 03:50:00,75.2,66.8,29.90,North,0,0.0,0.0,75,0.00,,,0.00,WUHU216HW,2013-07-23 10:50:00,
2013-07-23 03:55:00,75.2,66.8,29.90,North,0,0.0,0.0,75,0.00,,,0.00,WUHU216HW,2013-07-23 10:55:00,
2013-07-23 04:00:00,75.4,67.0,29.89,North,0,0.0,0.0,75,0.00,,,0.00,WUHU216HW,2013-07-23 11:00:00,
2013-07-23 04:05:00,75.2,66.4,29.89,SE,135,0.2,0.2,74,0.00,,,0.00,WUHU216HW,2013-07-23 11:05:00,
2013-07-23 04:10:00,75.4,66.6,29.89,South,190,0.6,1.3,74,0.00,,,0.00,WUHU216HW,2013-07-23 11:10:00,
2013-07-23 04:15:00,75.4,66.6,29.89,South,175,0.7,1.1,74,0.00,,,0.00,WUHU216HW,2013-07-23 11:15:00,
2013-07-23 04:20:00,75.4,66.6,29.89,South,179,1.2,1.8,74,0.00,,,0.00,WUHU216HW,2013-07-23 11:20:00,
2013-07-23 04:25:00,75.4,66.2,29.90,South,185,1.4,2.5,73,0.00,,,0.00,WUHU216HW,2013-07-23 11:25:00,
2013-07-23 04:30:00,75.6,66.3,29.90,SSE,158,2.2,3.1,73,0.00,,,0.00,WUHU216HW,2013-07-23 11:30:00,
2013-07-23 04:35:00,75.4,65.8,29.90,South,173,2.2,2.9,72,0.00,,,0.00,WUHU216HW,2013-07-23 11:35:00,
2013-07-23 04:40:00,75.2,65.6,29.90,SSE,163,1.9,3.4,72,0.00,,,0.00,WUHU216HW,2013-07-23 11:40:00,
2013-07-23 04:45:00,75.2,65.2,29.90,SSE,157,1.5,2.2,71,0.00,,,0.00,WUHU216HW,2013-07-23 11:45:00,
2013-07-23 04:50:00,75.2,65.2,29.90,SE,146,1.1,2.5,71,0.00,,,0.00,WUHU216HW,2013-07-23 11:50:00,
2013-07-23 04:55:00,75.2,65.2,29.90,SE,127,0.7,1.3,71,0.00,,,0.00,WUHU216HW,2013-07-23 11:55:00,
2013-07-23 05:00:00,75.2,65.2,29.89,ESE,118,0.6,1.3,71,0.00,,,0.00,WUHU216HW,2013-07-23 12:00:00,
2013-07-23 05:05:00,75.2,65.2,29.89,SE,134,1.1,1.8,71,0.00,,,0.00,WUHU216HW,2013-07-23 12:05:00,
2013-07-23 05:10:00,75.2,65.2,29.89,SE,140,1.2,2.0,71,0.00,,,0.00,WUHU216HW,2013-07-23 12:10:00,
2013-07-23 05:15:00,75.2,64.8,29.90,SE,144,1.5,2.7,70,0.00,,,0.00,WUHU216HW,2013-07-23 12:15:00,
2013-07-23 05:20:00,75.2,63.9,29.90,SSE,158,2.0,3.1,68,0.00,,,0.00,WUHU216HW,2013-07-23 12:20:00,
2013-07-23 05:25:00,75.4,63.7,29.90,SSE,164,2.2,2.7,67,0.00,,,0.00,WUHU216HW,2013-07-23 12:25:00,
2013-07-23 05:30:00,75.4,63.3,29.89,South,188,2.5,4.0,66,0.00,,,0.00,WUHU216HW,2013-07-23 12:30:00,
2013-07-23 05:35:00,75.6,63.8,29.90,SSW,199,2.0,3.1,67,0.00,,,0.00,WUHU216HW,2013-07-23 12:35:00,
2013-07-23 05:40:00,75.2,63.6,29.90,South,175,1.6,2.5,67,0.00,,,0.00,WUHU216HW,2013-07-23 12:40:00,
2013-07-23 05:45:00,75.2,63.9,29.90,South,173,1.2,2.2,68,0.00,,,0.00,WUHU216HW,2013-07-23 12:45:00,
2013-07-23 05:50:00,75.1,63.8,29.90,South,189,0.9,1.8,68,0.00,,,0.00,WUHU216HW,2013-07-23 12:50:00,
2013-07-23 05:55:00,75.1,63.4,29.91,South,178,1.7,3.1,67,0.00,,,0.00,WUHU216HW,2013-07-23 12:55:00,
2013-07-23 06:00:00,74.9,63.2,29.91,South,181,0.8,2.2,67,0.00,,,0.00,WUHU216HW,2013-07-23 13:00:00,
2013-07-23 06:05:00,74.7,63.5,29.91,South,184,0.4,0.9,68,0.00,,,0.00,WUHU216HW,2013-07-23 13:05:00,
2013-07-23 06:10:00,74.5,63.3,29.92,SW,220,0.3,0.7,68,0.00,,,0.00,WUHU216HW,2013-07-23 13:10:00,
2013-07-23 06:15:00,74.5,63.3,29.92,SW,225,0.3,0.4,68,0.00,,,0.00,WUHU216HW,2013-07-23 13:15:00,
2013-07-23 06:20:00,74.5,63.7,29.92,SW,225,0.3,0.4,69,0.00,,,0.00,WUHU216HW,2013-07-23 13:20:00,
2013-07-23 06:25:00,74.0,63.6,29.92,SSW,205,0.6,1.1,70,0.00,,,0.00,WUHU216HW,2013-07-23 13:25:00,
2013-07-23 06:30:00,73.6,63.4,29.92,SSW,207,0.4,0.7,70,0.00,,,0.00,WUHU216HW,2013-07-23 13:30:00,
2013-07-23 06:35:00,73.6,63.4,29.92,SSW,203,0.5,0.7,70,0.00,,,0.00,WUHU216HW,2013-07-23 13:35:00,
2013-07-23 06:40:00,73.4,63.2,29.92,SSW,203,0.4,0.7,70,0.00,,,0.00,WUHU216HW,2013-07-23 13:40:00,
2013-07-23 06:45:00,73.6,63.7,29.93,North,0,0.0,0.0,71,0.00,,,0.00,WUHU216HW,2013-07-23 13:45:00,
2013-07-23 06:50:00,73.8,63.9,29.93,ESE,113,0.3,0.4,71,0.00,,,0.00,WUHU216HW,2013-07-23 13:50:00,
2013-07-23 06:55:00,74.0,64.1,29.93,North,0,0.0,0.0,71,0.00,,,0.00,WUHU216HW,2013-07-23 13:55:00,
2013-07-23 07:00:00,74.3,64.0,29.93,North,0,0.0,0.0,70,0.00,,,0.00,WUHU216HW,2013-07-23 14:00:00,
2013-07-23 07:05:00,74.5,64.2,29.93,ESE,113,0.2,0.2,70,0.00,,,0.00,WUHU216HW,2013-07-23 14:05:00,
2013-07-23 07:10:00,74.5,64.2,29.93,ESE,113,0.3,0.4,70,0.00,,,0.00,WUHU216HW,2013-07-23 14:10:00,
2013-07-23 07:15:00,74.9,64.1,29.93,ESE,116,0.3,0.7,69,0.00,,,0.00,WUHU216HW,2013-07-23 14:15:00,
2013-07-23 07:20:00,74.9,63.6,29.93,ESE,109,0.7,1.6,68,0.00,,,0.00,WUHU216HW,2013-07-23 14:20:00,
2013-07-23 07:25:00,75.1,63.8,29.93,SE,131,1.0,2.2,68,0.00,,,0.00,WUHU216HW,2013-07-23 14:25:00,
2013-07-23 07:30:00,75.2,63.6,29.93,ESE,123,0.9,2.2,67,0.00,,,0.00,WUHU216HW,2013-07-23 14:30:00,
2013-07-23 07:35:00,75.4,63.3,29.93,SE,128,0.6,1.3,66,0.00,,,0.00,WUHU216HW,2013-07-23 14:35:00,
2013-07-23 07:40:00,75.6,63.5,29.93,ESE,123,0.5,1.1,66,0.00,,,0.00,WUHU216HW,2013-07-23 14:40:00,
2013-07-23 07:45:00,76.0,63.7,29.93,ESE,104,0.5,1.3,66,0.00,,,0.00,WUHU216HW,2013-07-23 14:45:00,
2013-07-23 07:50:00,76.1,63.5,29.93,SE,125,0.4,0.9,65,0.00,,,0.00,WUHU216HW,2013-07-23 14:50:00,
2013-07-23 07:55:00,76.3,63.6,29.93,ESE,105,0.7,1.3,65,0.00,,,0.00,WUHU216HW,2013-07-23 14:55:00,
2013-07-23 08:00:00,76.7,63.5,29.93,SE,125,1.2,2.5,64,0.00,,,0.00,WUHU216HW,2013-07-23 15:00:00,
2013-07-23 08:05:00,76.9,63.3,29.93,SE,132,1.2,2.5,63,0.00,,,0.00,WUHU216HW,2013-07-23 15:05:00,
2013-07-23 08:10:00,77.2,63.6,29.93,ESE,105,0.9,1.8,63,0.00,,,0.00,WUHU216HW,2013-07-23 15:10:00,
2013-07-23 08:15:00,77.4,63.8,29.94,East,97,0.8,1.3,63,0.00,,,0.00,WUHU216HW,2013-07-23 15:15:00,
2013-07-23 08:20:00,77.9,63.9,29.94,ESE,107,0.8,1.6,62,0.00,,,0.00,WUHU216HW,2013-07-23 15:20:00,
2013-07-23 08:25:00,78.5,64.0,29.93,ESE,111,0.9,1.6,61,0.00,,,0.00,WUHU216HW,2013-07-23 15:25:00,
2013-07-23 08:30:00,78.8,64.4,29.93,ESE,118,0.8,2.5,61,0.00,,,0.00,WUHU216HW,2013-07-23 15:30:00,
2013-07-23 08:35:00,79.4,64.4,29.94,ESE,117,0.9,2.2,60,0.00,,,0.00,WUHU216HW,2013-07-23 15:35:00,
2013-07-23 08:40:00,80.3,64.7,29.94,ESE,109,1.1,1.8,59,0.00,,,0.00,WUHU216HW,2013-07-23 15:40:00,
2013-07-23 08:45:00,81.2,63.4,29.94,SE,134,1.9,3.8,55,0.00,,,0.00,WUHU216HW,2013-07-23 15:45:00,
2013-07-23 08:50:00,82.1,63.7,29.94,SE,144,1.9,3.4,54,0.00,,,0.00,WUHU216HW,2013-07-23 15:50:00,
2013-07-23 08:55:00,82.4,63.5,29.94,SE,141,2.1,3.4,53,0.00,,,0.00,WUHU216HW,2013-07-23 15:55:00,
2013-07-23 09:00:00,82.8,63.8,29.94,SSE,158,2.8,3.8,53,0.00,,,0.00,WUHU216HW,2013-07-23 16:00:00,
2013-07-23 09:05:00,83.2,64.2,29.95,South,178,1.9,4.7,53,0.00,,,0.00,WUHU216HW,2013-07-23 16:05:00,
2013-07-23 09:10:00,83.5,64.1,29.94,South,187,2.5,4.7,52,0.00,,,0.00,WUHU216HW,2013-07-23 16:10:00,
2013-07-23 09:15:00,83.9,63.9,29.94,SSW,210,2.1,3.4,51,0.00,,,0.00,WUHU216HW,2013-07-23 16:15:00,
2013-07-23 09:20:00,84.4,63.9,29.94,South,183,3.1,4.3,50,0.00,,,0.00,WUHU216HW,2013-07-23 16:20:00,
2013-07-23 09:25:00,85.0,64.9,29.94,SSE,166,2.7,4.3,51,0.00,,,0.00,WUHU216HW,2013-07-23 16:25:00,
2013-07-23 09:30:00,85.5,64.3,29.94,South,170,2.7,4.9,49,0.00,,,0.00,WUHU216HW,2013-07-23 16:30:00,
2013-07-23 09:35:00,85.7,63.7,29.94,SSW,195,2.2,3.4,48,0.00,,,0.00,WUHU216HW,2013-07-23 16:35:00,
2013-07-23 09:40:00,85.7,64.4,29.94,South,180,2.5,4.7,49,0.00,,,0.00,WUHU216HW,2013-07-23 16:40:00,
2013-07-23 09:45:00,86.0,64.7,29.94,SSW,202,3.0,4.3,49,0.00,,,0.00,WUHU216HW,2013-07-23 16:45:00,
2013-07-23 09:50:00,86.4,64.5,29.94,SSE,166,2.3,3.8,48,0.00,,,0.00,WUHU216HW,2013-07-23 16:50:00,
2013-07-23 09:55:00,86.8,64.1,29.94,South,187,2.9,4.9,47,0.00,,,0.00,WUHU216HW,2013-07-23 16:55:00,
2013-07-23 10:00:00,87.1,64.5,29.94,SSW,211,3.0,4.7,47,0.00,,,0.00,WUHU216HW,2013-07-23 17:00:00,
2013-07-23 10:05:00,87.5,63.5,29.94,South,171,2.5,4.9,45,0.00,,,0.00,WUHU216HW,2013-07-23 17:05:00,
2013-07-23 10:10:00,87.8,63.8,29.94,South,191,3.5,4.5,45,0.00,,,0.00,WUHU216HW,2013-07-23 17:10:00,
2013-07-23 10:15:00,88.2,62.8,29.93,South,186,3.2,4.7,43,0.00,,,0.00,WUHU216HW,2013-07-23 17:15:00,
2013-07-23 10:20:00,88.7,63.9,29.93,South,184,3.6,4.9,44,0.00,,,0.00,WUHU216HW,2013-07-23 17:20:00,
2013-07-23 10:25:00,88.7,63.9,29.93,South,173,3.4,5.4,44,0.00,,,0.00,WUHU216HW,2013-07-23 17:25:00,
2013-07-23 10:30:00,89.3,63.7,29.93,South,185,4.2,6.3,43,0.00,,,0.00,WUHU216HW,2013-07-23 17:30:00,
2013-07-23 10:35:00,89.5,63.3,29.93,South,177,4.4,6.7,42,0.00,,,0.00,WUHU216HW,2013-07-23 17:35:00,
2013-07-23 10:45:00,89.8,62.3,29.93,SSW,195,3.7,5.8,40,0.00,,,0.00,WUHU216HW,2013-07-23 17:45:00,
2013-07-23 10:50:00,90.2,61.0,29.94,South,189,3.0,5.1,38,0.00,,,0.00,WUHU216HW,2013-07-23 17:50:00,
2013-07-23 10:55:00,90.2,61.0,29.94,South,191,2.8,4.5,38,0.00,,,0.00,WUHU216HW,2013-07-23 17:55:00,
2013-07-23 11:00:00,90.0,60.8,29.94,SW,231,2.4,4.0,38,0.00,,,0.00,WUHU216HW,2013-07-23 18:00:00,
2013-07-23 11:05:00,90.0,60.8,29.94,South,176,2.8,4.7,38,0.00,,,0.00,WUHU216HW,2013-07-23 18:05:00,
2013-07-23 11:11:00,90.0,60.8,29.94,SW,221,2.6,4.9,38,0.00,,,0.00,WUHU216HW,2013-07-23 18:11:00,
2013-07-23 11:16:00,90.5,62.1,29.94,South,174,3.3,5.1,39,0.00,,,0.00,WUHU216HW,2013-07-23 18:16:00,
2013-07-23 11:21:00,90.9,61.7,29.94,WSW,250,2.4,4.7,38,0.00,,,0.00,WUHU216HW,2013-07-23 18:21:00,
2013-07-23 11:26:00,91.1,61.8,29.94,SSW,205,2.5,5.1,38,0.00,,,0.00,WUHU216HW,2013-07-23 18:26:00,
2013-07-23 11:31:00,91.1,62.7,29.94,WSW,248,2.4,6.3,39,0.00,,,0.00,WUHU216HW,2013-07-23 18:31:00,
2013-07-23 11:36:00,91.1,62.7,29.93,SW,235,2.9,5.4,39,0.00,,,0.00,WUHU216HW,2013-07-23 18:36:00,
2013-07-23 11:41:00,90.9,63.3,29.93,WSW,245,2.1,3.6,40,0.00,,,0.00,WUHU216HW,2013-07-23 18:41:00,
2013-07-23 11:46:00,91.4,63.7,29.93,West,263,2.8,5.1,40,0.00,,,0.00,WUHU216HW,2013-07-23 18:46:00,
2013-07-23 11:51:00,91.3,62.0,29.93,SW,222,2.3,4.7,38,0.00,,,0.00,WUHU216HW,2013-07-23 18:51:00,
2013-07-23 11:56:00,91.6,62.3,29.93,SSW,204,3.1,4.7,38,0.00,,,0.00,WUHU216HW,2013-07-23 18:56:00,
2013-07-23 12:01:00,91.4,62.1,29.93,SW,228,2.8,5.4,38,0.00,,,0.00,WUHU216HW,2013-07-23 19:01:00,
2013-07-23 12:06:00,91.8,63.3,29.93,SW,225,1.8,3.8,39,0.00,,,0.00,WUHU216HW,2013-07-23 19:06:00,
2013-07-23 12:11:00,92.2,62.7,29.93,SSW,211,1.9,4.0,38,0.00,,,0.00,WUHU216HW,2013-07-23 19:11:00,
2013-07-23 12:16:00,92.3,62.9,29.93,WSW,250,2.6,4.3,38,0.00,,,0.00,WUHU216HW,2013-07-23 19:16:00,
2013-07-23 12:21:00,92.9,63.4,29.92,SW,230,2.6,4.9,38,0.00,,,0.00,WUHU216HW,2013-07-23 19:21:00,
2013-07-23 12:26:00,93.1,61.9,29.92,WSW,238,2.6,4.0,36,0.00,,,0.00,WUHU216HW,2013-07-23 19:26:00,
2013-07-23 12:31:00,93.1,61.9,29.93,West,260,3.5,5.6,36,0.00,,,0.00,WUHU216HW,2013-07-23 19:31:00,
2013-07-23 12:36:00,93.6,62.5,29.92,SW,227,1.6,2.7,36,0.00,,,0.00,WUHU216HW,2013-07-23 19:36:00,
2013-07-23 12:41:00,94.0,61.9,29.92,West,279,2.9,4.7,35,0.00,,,0.00,WUHU216HW,2013-07-23 19:41:00,
2013-07-23 12:46:00,94.0,61.9,29.92,West,264,3.5,5.1,35,0.00,,,0.00,WUHU216HW,2013-07-23 19:46:00,
2013-07-23 12:51:00,94.1,62.1,29.92,West,280,2.2,4.5,35,0.00,,,0.00,WUHU216HW,2013-07-23 19:51:00,
2013-07-23 12:56:00,94.3,62.3,29.92,West,264,2.5,4.3,35,0.00,,,0.00,WUHU216HW,2013-07-23 19:56:00,
2013-07-23 13:01:00,94.5,62.5,29.92,WNW,293,2.8,5.1,35,0.00,,,0.00,WUHU216HW,2013-07-23 20:01:00,
2013-07-23 13:06:00,94.5,62.5,29.91,South,187,2.9,5.4,35,0.00,,,0.00,WUHU216HW,2013-07-23 20:06:00,
2013-07-23 13:11:00,94.9,62.7,29.91,WSW,248,1.9,3.6,35,0.00,,,0.00,WUHU216HW,2013-07-23 20:11:00,
2013-07-23 13:16:00,95.0,62.9,29.91,SW,233,3.2,5.8,35,0.00,,,0.00,WUHU216HW,2013-07-23 20:16:00,
2013-07-23 13:21:00,95.6,62.6,29.90,SW,232,2.3,4.5,34,0.00,,,0.00,WUHU216HW,2013-07-23 20:21:00,
2013-07-23 13:26:00,95.8,62.7,29.91,WSW,238,2.9,4.5,34,0.00,,,0.00,WUHU216HW,2013-07-23 20:26:00,
2013-07-23 13:32:00,95.6,62.6,29.90,SSW,201,1.7,3.1,34,0.00,,,0.00,WUHU216HW,2013-07-23 20:32:00,
2013-07-23 13:37:00,95.4,63.2,29.90,SW,222,2.2,4.0,35,0.00,,,0.00,WUHU216HW,2013-07-23 20:37:00,
2013-07-23 13:42:00,95.2,63.1,29.90,SW,233,2.2,3.4,35,0.00,,,0.00,WUHU216HW,2013-07-23 20:42:00,
2013-07-23 13:47:00,95.4,63.2,29.90,West,268,2.5,4.9,35,0.00,,,0.00,WUHU216HW,2013-07-23 20:47:00,
2013-07-23 13:52:00,95.9,62.8,29.90,SW,216,2.7,4.0,34,0.00,,,0.00,WUHU216HW,2013-07-23 20:52:00,
2013-07-23 13:57:00,96.1,63.8,29.90,South,180,1.7,3.4,35,0.00,,,0.00,WUHU216HW,2013-07-23 20:57:00,
2013-07-23 14:02:00,96.1,63.0,29.90,West,278,2.7,4.7,34,0.00,,,0.00,WUHU216HW,2013-07-23 21:02:00,
2013-07-23 14:07:00,96.8,62.8,29.90,West,266,2.5,4.5,33,0.00,,,0.00,WUHU216HW,2013-07-23 21:07:00,
2013-07-23 14:13:00,97.4,63.3,29.89,South,175,2.6,4.3,33,0.00,,,0.00,WUHU216HW,2013-07-23 21:13:00,
2013-07-23 14:18:00,97.4,63.3,29.89,South,190,2.0,3.6,33,0.00,,,0.00,WUHU216HW,2013-07-23 21:18:00,
2013-07-23 14:23:00,96.8,62.8,29.89,SW,232,2.7,5.1,33,0.00,,,0.00,WUHU216HW,2013-07-23 21:23:00,
2013-07-23 14:28:00,96.3,62.4,29.89,WSW,242,2.9,4.3,33,0.00,,,0.00,WUHU216HW,2013-07-23 21:28:00,
2013-07-23 14:33:00,96.3,62.4,29.89,WNW,289,3.9,5.6,33,0.00,,,0.00,WUHU216HW,2013-07-23 21:33:00,
2013-07-23 14:38:00,96.7,62.7,29.88,WNW,302,2.2,4.3,33,0.00,,,0.00,WUHU216HW,2013-07-23 21:38:00,
2013-07-23 14:43:00,97.2,62.3,29.88,South,183,2.2,3.8,32,0.00,,,0.00,WUHU216HW,2013-07-23 21:43:00,
2013-07-23 14:48:00,97.7,63.6,29.88,SSW,211,1.9,3.8,33,0.00,,,0.00,WUHU216HW,2013-07-23 21:48:00,
2013-07-23 14:53:00,97.9,62.9,29.88,West,277,1.7,4.0,32,0.00,,,0.00,WUHU216HW,2013-07-23 21:53:00,
2013-07-23 14:58:00,97.9,62.9,29.88,NW,306,1.2,4.0,32,0.00,,,0.00,WUHU216HW,2013-07-23 21:58:00,
2013-07-23 15:03:00,98.3,63.3,29.87,SW,214,1.5,3.1,32,0.00,,,0.00,WUHU216HW,2013-07-23 22:03:00,
2013-07-23 15:09:00,98.6,62.7,29.87,West,275,1.8,4.0,31,0.00,,,0.00,WUHU216HW,2013-07-23 22:09:00,
2013-07-23 15:14:00,99.0,63.1,29.87,SSW,196,2.6,6.5,31,0.00,,,0.00,WUHU216HW,2013-07-23 22:14:00,
2013-07-23 15:19:00,98.8,62.9,29.87,SW,233,2.3,4.9,31,0.00,,,0.00,WUHU216HW,2013-07-23 22:19:00,
2013-07-23 15:24:00,98.8,62.9,29.87,SSW,195,2.2,4.9,31,0.00,,,0.00,WUHU216HW,2013-07-23 22:24:00,
2013-07-23 15:29:00,99.0,63.1,29.87,West,270,2.4,6.0,31,0.00,,,0.00,WUHU216HW,2013-07-23 22:29:00,
2013-07-23 15:34:00,99.0,63.1,29.87,NW,304,1.4,3.4,31,0.00,,,0.00,WUHU216HW,2013-07-23 22:34:00,
2013-07-23 15:39:00,99.4,63.4,29.87,WNW,290,2.0,4.0,31,0.00,,,0.00,WUHU216HW,2013-07-23 22:39:00,
2013-07-23 15:44:00,99.4,63.4,29.87,NW,316,2.2,4.3,31,0.00,,,0.00,WUHU216HW,2013-07-23 22:44:00,
2013-07-23 15:49:00,99.7,63.7,29.86,North,351,1.8,4.0,31,0.00,,,0.00,WUHU216HW,2013-07-23 22:49:00,
2013-07-23 15:55:00,100.1,64.1,29.86,WNW,287,2.5,5.8,31,0.00,,,0.00,WUHU216HW,2013-07-23 22:55:00,
2013-07-23 16:00:00,100.1,63.2,29.86,West,271,3.0,5.8,30,0.00,,,0.00,WUHU216HW,2013-07-23 23:00:00,
2013-07-23 16:05:00,99.9,63.1,29.86,SW,232,2.1,4.3,30,0.00,,,0.00,WUHU216HW,2013-07-23 23:05:00,
2013-07-23 16:10:00,100.1,64.1,29.86,SSW,194,2.4,4.5,31,0.00,,,0.00,WUHU216HW,2013-07-23 23:10:00,
2013-07-23 16:15:00,100.4,63.5,29.85,SSW,196,2.8,5.4,30,0.00,,,0.00,WUHU216HW,2013-07-23 23:15:00,
2013-07-23 16:20:00,100.4,63.5,29.85,WSW,248,2.6,4.5,30,0.00,,,0.00,WUHU216HW,2013-07-23 23:20:00,
2013-07-23 16:25:00,100.3,63.4,29.85,West,270,2.0,4.9,30,0.00,,,0.00,WUHU216HW,2013-07-23 23:25:00,
2013-07-23 16:30:00,100.1,63.2,29.85,West,263,2.8,5.8,30,0.00,,,0.00,WUHU216HW,2013-07-23 23:30:00,
2013-07-23 16:35:00,100.1,63.2,29.84,WNW,298,1.9,4.0,30,0.00,,,0.00,WUHU216HW,2013-07-23 23:35:00,
2013-07-23 16:40:00,100.4,62.4,29.84,WNW,295,3.2,4.9,29,0.00,,,0.00,WUHU216HW,2013-07-23 23:40:00,
2013-07-23 16:46:00,100.4,61.3,29.84,West,268,2.7,5.1,28,0.00,,,0.00,WUHU216HW,2013-07-23 23:46:00,
2013-07-23 16:51:00,100.1,60.9,29.84,West,278,3.7,6.3,28,0.00,,,0.00,WUHU216HW,2013-07-23 23:51:00,
2013-07-23 16:56:00,99.5,61.7,29.84,WNW,298,3.1,6.7,29,0.00,,,0.00,WUHU216HW,2013-07-23 23:56:00,
2013-07-23 17:01:00,99.4,61.5,29.84,NNW,329,2.3,4.9,29,0.00,,,0.00,WUHU216HW,2013-07-24 00:01:00,
2013-07-23 17:06:00,99.2,61.3,29.84,NW,321,3.2,6.5,29,0.00,,,0.00,WUHU216HW,2013-07-24 00:06:00,
2013-07-23 17:11:00,99.2,61.3,29.84,NW,306,2.9,5.4,29,0.00,,,0.00,WUHU216HW,2013-07-24 00:11:00,
2013-07-23 17:16:00,99.0,61.1,29.84,NW,311,3.1,5.6,29,0.00,,,0.00,WUHU216HW,2013-07-24 00:16:00,
2013-07-23 17:21:00,98.6,60.9,29.84,NW,313,2.5,7.8,29,0.00,,,0.00,WUHU216HW,2013-07-24 00:21:00,
2013-07-23 17:26:00,98.6,60.9,29.84,WNW,296,3.6,5.4,29,0.00,,,0.00,WUHU216HW,2013-07-24 00:26:00,
2013-07-23 17:31:00,98.6,60.9,29.84,NW,318,2.5,4.5,29,0.00,,,0.00,WUHU216HW,2013-07-24 00:31:00,
2013-07-23 17:36:00,98.5,60.7,29.84,NW,323,2.7,6.0,29,0.00,,,0.00,WUHU216HW,2013-07-24 00:36:00,
2013-07-23 17:41:00,98.5,60.7,29.84,NW,308,2.9,7.4,29,0.00,,,0.00,WUHU216HW,2013-07-24 00:41:00,
2013-07-23 17:46:00,98.5,59.5,29.84,NW,308,3.6,5.1,28,0.00,,,0.00,WUHU216HW,2013-07-24 00:46:00,
2013-07-23 17:51:00,98.3,58.2,29.84,WNW,299,3.7,4.7,27,0.00,,,0.00,WUHU216HW,2013-07-24 00:51:00,
2013-07-23 17:56:00,98.3,58.2,29.83,NW,309,4.3,6.3,27,0.00,,,0.00,WUHU216HW,2013-07-24 00:56:00,
2013-07-23 18:01:00,98.3,60.5,29.83,WNW,300,4.6,6.5,29,0.00,,,0.00,WUHU216HW,2013-07-24 01:01:00,
2013-07-23 18:06:00,98.1,60.3,29.83,WNW,301,4.3,6.9,29,0.00,,,0.00,WUHU216HW,2013-07-24 01:06:00,
2013-07-23 18:11:00,97.7,60.0,29.83,WNW,295,4.7,6.7,29,0.00,,,0.00,WUHU216HW,2013-07-24 01:11:00,
2013-07-23 18:16:00,97.6,59.9,29.83,NW,308,3.9,5.8,29,0.00,,,0.00,WUHU216HW,2013-07-24 01:16:00,
2013-07-23 18:21:00,97.6,59.9,29.83,NW,308,4.8,6.3,29,0.00,,,0.00,WUHU216HW,2013-07-24 01:21:00,
2013-07-23 18:27:00,97.2,59.5,29.83,WNW,299,5.7,8.5,29,0.00,,,0.00,WUHU216HW,2013-07-24 01:27:00,
2013-07-23 18:32:00,97.0,60.5,29.83,NW,309,4.9,7.2,30,0.00,,,0.00,WUHU216HW,2013-07-24 01:32:00,
2013-07-23 18:37:00,97.0,60.5,29.83,NW,308,4.0,5.6,30,0.00,,,0.00,WUHU216HW,2013-07-24 01:37:00,
2013-07-23 18:42:00,97.0,61.3,29.83,NW,316,3.7,4.9,31,0.00,,,0.00,WUHU216HW,2013-07-24 01:42:00,
2013-07-23 18:47:00,96.8,61.1,29.83,WNW,298,4.7,6.3,31,0.00,,,0.00,WUHU216HW,2013-07-24 01:47:00,
2013-07-23 18:52:00,96.5,60.9,29.83,WNW,292,4.1,6.7,31,0.00,,,0.00,WUHU216HW,2013-07-24 01:52:00,
2013-07-23 18:57:00,96.3,61.5,29.83,NW,304,4.1,5.4,32,0.00,,,0.00,WUHU216HW,2013-07-24 01:57:00,
2013-07-23 19:03:00,96.1,61.4,29.83,NNW,338,3.4,3.4,32,0.00,,,0.00,WUHU216HW,2013-07-24 02:03:00,
2013-07-23 19:08:00,96.1,61.4,29.83,NNW,338,3.4,3.4,32,0.00,,,0.00,WUHU216HW,2013-07-24 02:08:00,
2013-07-23 20:04:00,93.1,60.3,29.84,NW,315,4.0,4.0,34,0.00,,,0.00,WUHU216HW,2013-07-24 03:04:00,
2013-07-23 21:04:00,88.6,61.8,29.85,North,0,0.0,0.0,41,0.00,,,0.00,WUHU216HW,2013-07-24 04:04:00,
2013-07-23 22:04:00,84.2,61.8,29.87,NW,315,1.4,1.8,47,0.00,,,0.00,WUHU216HW,2013-07-24 05:04:00,
2013-07-23 22:09:00,83.9,61.5,29.87,NW,311,1.0,2.5,47,0.00,,,0.00,WUHU216HW,2013-07-24 05:09:00,
2013-07-23 22:14:00,83.9,61.5,29.87,NNW,334,0.4,0.7,47,0.00,,,0.00,WUHU216HW,2013-07-24 05:14:00,
2013-07-23 22:19:00,83.7,61.3,29.87,NNW,332,0.5,1.1,47,0.00,,,0.00,WUHU216HW,2013-07-24 05:19:00,
2013-07-23 22:24:00,83.5,61.1,29.87,NNW,337,0.7,1.1,47,0.00,,,0.00,WUHU216HW,2013-07-24 05:24:00,
2013-07-23 22:29:00,83.5,61.1,29.87,NNW,334,0.4,0.9,47,0.00,,,0.00,WUHU216HW,2013-07-24 05:29:00,
2013-07-23 22:34:00,83.5,61.1,29.87,NW,315,1.1,2.2,47,0.00,,,0.00,WUHU216HW,2013-07-24 05:34:00,
2013-07-23 22:39:00,83.5,61.1,29.87,NW,315,1.1,2.5,47,0.00,,,0.00,WUHU216HW,2013-07-24 05:39:00,
2013-07-23 22:44:00,83.3,60.9,29.87,NW,311,1.0,1.8,47,0.00,,,0.00,WUHU216HW,2013-07-24 05:44:00,
2013-07-23 22:49:00,83.3,60.9,29.87,West,270,0.6,1.3,47,0.00,,,0.00,WUHU216HW,2013-07-24 05:49:00,
2013-07-23 22:54:00,83.3,60.9,29.87,North,0,0.0,0.0,47,0.00,,,0.00,WUHU216HW,2013-07-24 05:54:00,
2013-07-23 22:59:00,83.2,60.8,29.87,North,0,0.0,0.0,47,0.00,,,0.00,WUHU216HW,2013-07-24 05:59:00,
2013-07-23 23:04:00,83.2,60.8,29.87,North,0,0.0,0.0,47,0.00,,,0.00,WUHU216HW,2013-07-24 06:04:00,
2013-07-23 23:09:00,82.6,60.8,29.87,North,0,0.0,0.0,48,0.00,,,0.00,WUHU216HW,2013-07-24 06:09:00,
2013-07-23 23:14:00,82.3,60.6,29.88,North,0,0.0,0.0,48,0.00,,,0.00,WUHU216HW,2013-07-24 06:14:00,
2013-07-23 23:19:00,81.5,60.5,29.87,North,0,0.0,0.0,49,0.00,,,0.00,WUHU216HW,2013-07-24 06:19:00,
2013-07-23 23:24:00,81.2,60.2,29.88,North,0,0.0,0.0,49,0.00,,,0.00,WUHU216HW,2013-07-24 06:24:00,
2013-07-23 23:29:00,81.0,60.7,29.88,North,0,0.0,0.0,50,0.00,,,0.00,WUHU216HW,2013-07-24 06:29:00,
2013-07-23 23:34:00,80.6,60.3,29.88,North,0,0.0,0.0,50,0.00,,,0.00,WUHU216HW,2013-07-24 06:34:00,
2013-07-23 23:39:00,80.3,60.5,29.88,NNW,338,0.2,0.2,51,0.00,,,0.00,WUHU216HW,2013-07-24 06:39:00,
2013-07-23 23:44:00,80.1,60.3,29.88,North,0,0.0,0.0,51,0.00,,,0.00,WUHU216HW,2013-07-24 06:44:00,
2013-07-23 23:49:00,79.9,60.7,29.88,North,0,0.0,0.0,52,0.00,,,0.00,WUHU216HW,2013-07-24 06:49:00,
2013-07-23 23:54:00,79.6,60.4,29.88,North,0,0.0,0.0,52,0.00,,,0.00,WUHU216HW,2013-07-24 06:54:00,
2013-07-23 23:59:00,79.4,60.8,29.88,North,0,0.0,0.0,53,0.00,,,0.00,WUHU216HW,2013-07-24 06:59:00,